createdAt,value
2024-04-30T00:00:05.065Z,20.03
2024-04-30T00:02:57.368Z,20.32
2024-04-30T00:05:25.000Z,20.63
2024-04-30T00:07:52.563Z,20.90
2024-04-30T00:10:20.136Z,20.73
2024-04-30T00:12:47.713Z,20.61
2024-04-30T00:15:17.766Z,20.80
2024-04-30T00:17:45.854Z,21.04
2024-04-30T00:20:13.732Z,21.28
2024-04-30T00:22:41.347Z,21.26
2024-04-30T00:25:08.855Z,20.83
2024-04-30T00:27:38.710Z,20.79
2024-04-30T00:30:07.003Z,20.97
2024-04-30T00:32:36.144Z,21.19
2024-04-30T00:35:05.391Z,21.29
2024-04-30T00:37:35.372Z,20.99
2024-04-30T00:40:05.021Z,21.03
2024-04-30T00:42:33.842Z,21.21
2024-04-30T00:45:01.549Z,21.40
2024-04-30T00:47:30.261Z,21.40
2024-04-30T00:49:57.927Z,20.93
2024-04-30T00:52:26.119Z,20.53
2024-04-30T00:54:54.392Z,20.62
2024-04-30T00:57:22.765Z,20.85
2024-04-30T00:59:50.521Z,21.07
2024-04-30T01:02:18.077Z,21.22
2024-04-30T01:05:01.021Z,20.90
2024-04-30T01:07:28.824Z,20.75
2024-04-30T01:09:56.769Z,20.90
2024-04-30T01:12:24.399Z,21.12
2024-04-30T01:14:51.935Z,21.32
2024-04-30T01:17:19.721Z,21.23
2024-04-30T01:19:47.387Z,20.91
2024-04-30T01:22:14.957Z,20.98
2024-04-30T01:24:42.605Z,21.16
2024-04-30T01:27:10.091Z,21.35
2024-04-30T01:29:37.610Z,21.36
2024-04-30T01:32:06.406Z,20.99
2024-04-30T01:34:35.745Z,20.97
2024-04-30T01:37:03.538Z,21.14
2024-04-30T01:39:31.098Z,21.33
2024-04-30T01:41:58.696Z,21.45
2024-04-30T01:44:26.231Z,21.14
2024-04-30T01:46:53.769Z,21.03
2024-04-30T01:49:21.638Z,21.16
2024-04-30T01:51:49.464Z,21.34
2024-04-30T01:54:17.030Z,21.48
2024-04-30T01:56:44.561Z,21.18
2024-04-30T01:59:12.071Z,21.05
2024-04-30T02:01:40.840Z,21.17
2024-04-30T02:04:13.998Z,21.35
2024-04-30T02:06:41.571Z,21.51
2024-04-30T02:09:09.760Z,21.25
2024-04-30T02:11:37.546Z,21.09
2024-04-30T02:14:05.213Z,21.20
2024-04-30T02:16:33.144Z,21.38
2024-04-30T02:19:00.797Z,21.53
2024-04-30T02:21:28.378Z,21.25
2024-04-30T02:23:55.978Z,21.07
2024-04-30T02:26:23.496Z,21.17
2024-04-30T02:28:51.000Z,21.35
2024-04-30T02:31:38.092Z,21.52
2024-04-30T02:34:23.727Z,21.32
2024-04-30T02:36:55.785Z,21.25
2024-04-30T02:39:23.722Z,21.37
2024-04-30T02:41:51.490Z,21.54
2024-04-30T02:44:19.090Z,21.63
2024-04-30T02:46:46.741Z,21.24
2024-04-30T02:49:14.365Z,21.09
2024-04-30T02:51:41.949Z,21.20
2024-04-30T02:54:09.644Z,21.38
2024-04-30T02:56:37.198Z,21.54
2024-04-30T02:59:04.894Z,21.35
2024-04-30T03:01:32.476Z,21.06
2024-04-30T03:04:00.222Z,21.13
2024-04-30T03:06:27.934Z,21.30
2024-04-30T03:08:55.630Z,21.48
2024-04-30T03:11:23.166Z,21.53
2024-04-30T03:13:50.764Z,21.16
2024-04-30T03:16:18.511Z,21.13
2024-04-30T03:18:46.053Z,21.28
2024-04-30T03:21:14.020Z,21.45
2024-04-30T03:23:41.533Z,21.62
2024-04-30T03:26:09.082Z,21.47
2024-04-30T03:28:36.695Z,21.18
2024-04-30T03:31:10.622Z,21.24
2024-04-30T03:33:38.319Z,21.39
2024-04-30T03:36:06.419Z,21.56
2024-04-30T03:38:40.373Z,21.58
2024-04-30T03:41:13.496Z,21.22
2024-04-30T03:43:41.091Z,21.23
2024-04-30T03:46:27.319Z,21.38
2024-04-30T03:48:56.675Z,21.57
2024-04-30T03:51:24.320Z,21.65
2024-04-30T03:53:51.856Z,21.33
2024-04-30T03:56:19.419Z,21.33
2024-04-30T03:58:47.089Z,21.46
2024-04-30T04:01:14.766Z,21.61
2024-04-30T04:03:42.443Z,21.68
2024-04-30T04:06:10.025Z,21.34
2024-04-30T04:08:37.597Z,21.30
2024-04-30T04:11:24.002Z,21.42
2024-04-30T04:14:13.322Z,21.59
2024-04-30T04:16:40.895Z,21.65
2024-04-30T04:19:08.516Z,21.30
2024-04-30T04:21:35.966Z,21.27
2024-04-30T04:24:03.749Z,21.39
2024-04-30T04:26:31.352Z,21.53
2024-04-30T04:28:58.854Z,21.65
2024-04-30T04:31:26.375Z,21.32
2024-04-30T04:33:53.954Z,21.19
2024-04-30T04:36:23.243Z,21.30
2024-04-30T04:38:50.980Z,21.45
2024-04-30T04:41:18.538Z,21.61
2024-04-30T04:43:46.186Z,21.49
2024-04-30T04:46:13.827Z,21.10
2024-04-30T04:48:41.659Z,21.11
2024-04-30T04:51:09.674Z,21.26
2024-04-30T04:53:39.948Z,21.43
2024-04-30T04:56:07.580Z,21.53
2024-04-30T04:58:35.360Z,21.16
2024-04-30T05:01:03.097Z,20.89
2024-04-30T05:03:30.827Z,20.98
2024-04-30T05:05:59.064Z,21.15
2024-04-30T05:08:27.040Z,21.34
2024-04-30T05:10:54.712Z,21.39
2024-04-30T05:13:22.358Z,21.07
2024-04-30T05:15:53.559Z,21.07
2024-04-30T05:18:21.197Z,21.20
2024-04-30T05:20:48.706Z,21.37
2024-04-30T05:23:16.298Z,21.48
2024-04-30T05:25:43.875Z,21.14
2024-04-30T05:28:11.604Z,20.99
2024-04-30T05:30:39.221Z,21.10
2024-04-30T05:33:06.835Z,21.27
2024-04-30T05:35:34.631Z,21.44
2024-04-30T05:38:03.325Z,21.32
2024-04-30T05:40:31.005Z,20.88
2024-04-30T05:42:59.475Z,20.86
2024-04-30T05:45:27.514Z,21.02
2024-04-30T05:47:56.195Z,21.21
2024-04-30T05:50:23.811Z,21.36
2024-04-30T05:52:51.778Z,21.13
2024-04-30T05:55:19.381Z,21.00
2024-04-30T05:57:46.945Z,21.11
2024-04-30T06:00:14.593Z,21.28
2024-04-30T06:02:42.145Z,21.44
2024-04-30T06:05:09.885Z,21.27
2024-04-30T06:07:37.718Z,20.79
2024-04-30T06:10:05.908Z,20.69
2024-04-30T06:12:33.471Z,20.86
2024-04-30T06:15:01.098Z,21.08
2024-04-30T06:17:28.946Z,21.29
2024-04-30T06:19:56.491Z,21.20
2024-04-30T06:22:24.182Z,20.83
2024-04-30T06:24:51.873Z,20.76
2024-04-30T06:27:19.374Z,20.94
2024-04-30T06:29:47.005Z,21.16
2024-04-30T06:32:14.528Z,21.37
2024-04-30T06:34:43.552Z,21.27
2024-04-30T06:37:11.706Z,20.84
2024-04-30T06:39:39.251Z,20.49
2024-04-30T06:42:07.046Z,20.49
2024-04-30T06:44:34.665Z,20.72
2024-04-30T06:47:02.185Z,20.98
2024-04-30T06:49:30.301Z,21.21
2024-04-30T06:51:58.522Z,21.13
2024-04-30T06:54:26.489Z,20.94
2024-04-30T06:56:54.021Z,21.07
2024-04-30T06:59:21.533Z,21.28
2024-04-30T07:01:49.062Z,21.46
2024-04-30T07:04:16.677Z,21.31
2024-04-30T07:06:44.364Z,20.99
2024-04-30T07:09:11.887Z,20.97
2024-04-30T07:11:39.492Z,21.15
2024-04-30T07:14:07.056Z,21.37
2024-04-30T07:16:48.549Z,21.51
2024-04-30T07:19:23.972Z,21.25
2024-04-30T07:21:52.340Z,21.13
2024-04-30T07:24:19.780Z,21.27
2024-04-30T07:26:47.526Z,21.48
2024-04-30T07:29:15.057Z,21.58
2024-04-30T07:31:42.605Z,21.32
2024-04-30T07:34:10.377Z,21.00
2024-04-30T07:36:37.971Z,20.78
2024-04-30T07:39:06.560Z,20.90
2024-04-30T07:41:34.257Z,21.12
2024-04-30T07:44:02.157Z,21.33
2024-04-30T07:46:29.682Z,21.28
2024-04-30T07:48:57.182Z,21.04
2024-04-30T07:51:24.692Z,21.05
2024-04-30T07:53:53.874Z,21.25
2024-04-30T07:56:21.416Z,21.48
2024-04-30T07:58:49.113Z,21.50
2024-04-30T08:01:16.759Z,21.24
2024-04-30T08:03:47.967Z,20.95
2024-04-30T08:06:20.483Z,20.74
2024-04-30T08:08:48.803Z,20.86
2024-04-30T08:11:16.535Z,21.11
2024-04-30T08:13:44.915Z,21.37
2024-04-30T08:16:13.431Z,21.39
2024-04-30T08:18:41.027Z,21.16
2024-04-30T08:21:08.946Z,20.90
2024-04-30T08:23:36.819Z,20.62
2024-04-30T08:26:04.565Z,20.57
2024-04-30T08:28:32.134Z,20.81
2024-04-30T08:31:00.374Z,21.09
2024-04-30T08:33:28.445Z,21.27
2024-04-30T08:35:56.083Z,21.14
2024-04-30T08:38:24.392Z,20.92
2024-04-30T08:40:52.298Z,20.69
2024-04-30T08:43:20.245Z,20.53
2024-04-30T08:45:50.107Z,20.72
2024-04-30T08:48:19.916Z,20.98
2024-04-30T08:50:47.764Z,21.24
2024-04-30T08:53:17.608Z,21.23
2024-04-30T08:55:47.488Z,21.04
2024-04-30T08:58:15.359Z,20.82
2024-04-30T09:00:45.096Z,20.57
2024-04-30T09:03:12.891Z,20.43
2024-04-30T09:05:44.304Z,20.64
2024-04-30T09:08:15.334Z,20.96
2024-04-30T09:10:42.993Z,21.25
2024-04-30T09:13:10.589Z,21.23
2024-04-30T09:15:38.144Z,21.05
2024-04-30T09:18:07.747Z,20.86
2024-04-30T09:20:47.657Z,20.61
2024-04-30T09:23:28.827Z,20.36
2024-04-30T09:25:57.557Z,20.15
2024-04-30T09:28:28.017Z,20.25
2024-04-30T09:30:56.996Z,20.59
2024-04-30T09:33:27.316Z,20.98
2024-04-30T09:36:09.777Z,21.20
2024-04-30T09:38:39.889Z,21.12
2024-04-30T09:41:11.881Z,20.99
2024-04-30T09:43:42.655Z,20.84
2024-04-30T09:46:10.392Z,20.62
2024-04-30T09:48:38.465Z,20.43
2024-04-30T09:51:06.890Z,20.26
2024-04-30T09:53:35.059Z,20.12
2024-04-30T09:56:03.363Z,20.00
2024-04-30T09:58:31.654Z,19.90
2024-04-30T10:01:03.666Z,20.08
2024-04-30T10:03:33.361Z,20.50
2024-04-30T10:06:04.304Z,20.92
2024-04-30T10:08:32.658Z,21.25
2024-04-30T10:11:07.345Z,21.27
2024-04-30T10:13:36.045Z,21.17
2024-04-30T10:16:13.994Z,21.03
2024-04-30T10:18:41.970Z,20.84
2024-04-30T10:21:12.841Z,20.65
2024-04-30T10:23:43.642Z,20.47
2024-04-30T10:26:12.611Z,20.32
2024-04-30T10:28:40.322Z,20.19
2024-04-30T10:31:13.011Z,20.25
2024-04-30T10:33:41.016Z,20.64
2024-04-30T10:36:10.507Z,21.07
2024-04-30T10:38:42.590Z,21.43
2024-04-30T10:41:10.953Z,21.46
2024-04-30T10:43:38.673Z,21.35
2024-04-30T10:46:17.701Z,21.22
2024-04-30T10:48:52.348Z,21.04
2024-04-30T10:51:27.118Z,20.87
2024-04-30T10:54:02.101Z,20.70
2024-04-30T10:56:29.937Z,20.56
2024-04-30T10:59:02.029Z,20.44
2024-04-30T11:01:32.902Z,20.35
2024-04-30T11:04:11.836Z,20.27
2024-04-30T11:06:47.054Z,20.18
2024-04-30T11:09:16.134Z,20.10
2024-04-30T11:11:48.912Z,20.04
2024-04-30T11:14:23.849Z,19.96
2024-04-30T11:16:53.628Z,19.88
2024-04-30T11:19:22.147Z,19.87
2024-04-30T11:21:51.541Z,20.21
2024-04-30T11:24:19.166Z,20.67
2024-04-30T11:26:49.832Z,21.12
2024-04-30T11:29:30.872Z,21.41
2024-04-30T11:32:05.940Z,21.41
2024-04-30T11:34:34.356Z,21.33
2024-04-30T11:37:02.120Z,21.19
2024-04-30T11:39:29.972Z,21.01
2024-04-30T11:42:06.903Z,20.83
2024-04-30T11:44:45.291Z,20.64
2024-04-30T11:47:12.882Z,20.48
2024-04-30T11:49:40.695Z,20.34
2024-04-30T11:52:08.420Z,20.23
2024-04-30T11:54:36.441Z,20.13
2024-04-30T11:57:04.284Z,20.04
2024-04-30T11:59:31.916Z,19.96
2024-04-30T12:01:59.691Z,19.98
2024-04-30T12:04:28.145Z,20.32
2024-04-30T12:06:56.022Z,20.75
2024-04-30T12:09:23.815Z,21.18
2024-04-30T12:11:51.889Z,21.40
2024-04-30T12:14:19.517Z,21.39
2024-04-30T12:16:48.256Z,21.29
2024-04-30T12:19:16.417Z,21.15
2024-04-30T12:21:44.378Z,20.98
2024-04-30T12:24:12.279Z,20.82
2024-04-30T12:26:40.158Z,20.67
2024-04-30T12:29:09.763Z,20.53
2024-04-30T12:31:41.957Z,20.42
2024-04-30T12:34:10.311Z,20.26
2024-04-30T12:36:38.873Z,20.33
2024-04-30T12:39:06.932Z,20.70
2024-04-30T12:41:40.682Z,21.13
2024-04-30T12:44:10.471Z,21.45
2024-04-30T12:46:38.538Z,21.50
2024-04-30T12:49:06.482Z,21.41
2024-04-30T12:51:34.405Z,21.20
2024-04-30T12:54:02.692Z,20.91
2024-04-30T12:56:30.609Z,20.61
2024-04-30T12:58:58.429Z,20.67
2024-04-30T13:01:26.585Z,21.02
2024-04-30T13:03:54.458Z,21.39
2024-04-30T13:06:22.034Z,21.51
2024-04-30T13:08:49.877Z,21.51
2024-04-30T13:11:17.883Z,21.40
2024-04-30T13:13:45.664Z,21.19
2024-04-30T13:16:13.730Z,21.05
2024-04-30T13:18:41.576Z,20.94
2024-04-30T13:21:09.293Z,20.85
2024-04-30T13:23:37.905Z,20.78
2024-04-30T13:26:05.526Z,20.71
2024-04-30T13:28:36.250Z,20.64
2024-04-30T13:31:04.070Z,20.56
2024-04-30T13:33:32.976Z,20.46
2024-04-30T13:36:01.101Z,20.39
2024-04-30T13:38:28.638Z,20.51
2024-04-30T13:40:56.241Z,20.92
2024-04-30T13:43:24.472Z,21.34
2024-04-30T13:45:53.322Z,21.71
2024-04-30T13:48:22.220Z,21.79
2024-04-30T13:50:49.740Z,21.67
2024-04-30T13:53:17.248Z,21.50
2024-04-30T13:55:44.879Z,21.32
2024-04-30T13:58:12.609Z,21.15
2024-04-30T14:00:40.152Z,21.02
2024-04-30T14:03:08.938Z,20.89
2024-04-30T14:05:38.786Z,20.76
2024-04-30T14:08:07.007Z,20.64
2024-04-30T14:10:35.834Z,20.51
2024-04-30T14:13:03.952Z,20.41
2024-04-30T14:15:33.077Z,20.37
2024-04-30T14:18:00.680Z,20.65
2024-04-30T14:20:28.353Z,21.06
2024-04-30T14:22:55.996Z,21.45
2024-04-30T14:25:23.705Z,21.74
2024-04-30T14:27:51.435Z,21.77
2024-04-30T14:30:19.083Z,21.66
2024-04-30T14:32:46.675Z,21.50
2024-04-30T14:35:14.665Z,21.32
2024-04-30T14:37:42.789Z,21.14
2024-04-30T14:40:11.423Z,20.98
2024-04-30T14:42:39.168Z,20.82
2024-04-30T14:45:07.846Z,20.66
2024-04-30T14:47:36.280Z,20.54
2024-04-30T14:50:04.297Z,20.46
2024-04-30T14:52:32.029Z,20.37
2024-04-30T14:54:59.620Z,20.29
2024-04-30T14:57:27.244Z,20.44
2024-04-30T14:59:54.740Z,20.83
2024-04-30T15:02:22.318Z,21.23
2024-04-30T15:04:50.020Z,21.60
2024-04-30T15:07:18.979Z,21.75
2024-04-30T15:09:57.227Z,21.64
2024-04-30T15:12:24.909Z,21.43
2024-04-30T15:14:52.963Z,21.24
2024-04-30T15:17:22.344Z,21.07
2024-04-30T15:19:50.093Z,20.94
2024-04-30T15:22:17.805Z,20.82
2024-04-30T15:24:45.333Z,20.71
2024-04-30T15:27:14.383Z,20.61
2024-04-30T15:29:41.899Z,20.51
2024-04-30T15:32:09.402Z,20.43
2024-04-30T15:34:41.096Z,20.36
2024-04-30T15:37:09.188Z,20.52
2024-04-30T15:39:36.840Z,20.89
2024-04-30T15:42:04.847Z,21.28
2024-04-30T15:44:32.408Z,21.64
2024-04-30T15:46:59.901Z,21.75
2024-04-30T15:49:27.518Z,21.65
2024-04-30T15:51:55.182Z,21.43
2024-04-30T15:54:23.040Z,21.23
2024-04-30T15:56:57.918Z,21.04
2024-04-30T15:59:29.120Z,20.86
2024-04-30T16:01:57.141Z,20.66
2024-04-30T16:04:25.249Z,20.72
2024-04-30T16:06:53.356Z,21.03
2024-04-30T16:09:21.154Z,21.40
2024-04-30T16:11:49.065Z,21.74
2024-04-30T16:14:18.333Z,21.86
2024-04-30T16:16:46.012Z,21.75
2024-04-30T16:19:14.422Z,21.53
2024-04-30T16:21:42.773Z,21.30
2024-04-30T16:24:11.619Z,21.11
2024-04-30T16:26:42.006Z,20.95
2024-04-30T16:29:10.040Z,20.79
2024-04-30T16:31:37.607Z,20.65
2024-04-30T16:34:05.695Z,20.53
2024-04-30T16:36:33.186Z,20.43
2024-04-30T16:39:00.821Z,20.63
2024-04-30T16:41:28.763Z,20.98
2024-04-30T16:43:56.285Z,21.35
2024-04-30T16:46:23.823Z,21.59
2024-04-30T16:48:52.464Z,21.53
2024-04-30T16:51:20.140Z,21.35
2024-04-30T16:53:47.719Z,21.16
2024-04-30T16:56:15.649Z,20.97
2024-04-30T16:58:43.367Z,20.80
2024-04-30T17:01:11.107Z,20.62
2024-04-30T17:03:42.032Z,20.46
2024-04-30T17:06:12.760Z,20.33
2024-04-30T17:08:41.498Z,20.48
2024-04-30T17:11:10.735Z,20.82
2024-04-30T17:13:42.531Z,21.18
2024-04-30T17:16:22.255Z,21.47
2024-04-30T17:18:50.468Z,21.45
2024-04-30T17:21:22.829Z,21.29
2024-04-30T17:23:52.970Z,21.09
2024-04-30T17:26:26.379Z,20.88
2024-04-30T17:28:55.249Z,20.66
2024-04-30T17:31:24.154Z,20.64
2024-04-30T17:33:56.704Z,20.92
2024-04-30T17:36:24.813Z,21.25
2024-04-30T17:38:52.502Z,21.51
2024-04-30T17:41:27.692Z,21.46
2024-04-30T17:43:55.591Z,21.26
2024-04-30T17:46:26.238Z,21.05
2024-04-30T17:48:56.224Z,20.82
2024-04-30T17:51:28.262Z,20.60
2024-04-30T17:54:08.902Z,20.74
2024-04-30T17:56:52.212Z,21.10
2024-04-30T17:59:28.014Z,21.44
2024-04-30T18:01:55.691Z,21.48
2024-04-30T18:04:23.608Z,21.29
2024-04-30T18:06:51.480Z,21.10
2024-04-30T18:09:19.134Z,20.87
2024-04-30T18:11:47.570Z,20.74
2024-04-30T18:14:15.418Z,20.94
2024-04-30T18:16:43.222Z,21.25
2024-04-30T18:19:10.789Z,21.52
2024-04-30T18:21:41.305Z,21.49
2024-04-30T18:24:09.024Z,21.28
2024-04-30T18:26:41.092Z,21.09
2024-04-30T18:29:09.573Z,20.87
2024-04-30T18:31:37.154Z,20.69
2024-04-30T18:34:04.980Z,20.54
2024-04-30T18:36:37.359Z,20.41
2024-04-30T18:39:05.723Z,20.30
2024-04-30T18:41:33.445Z,20.40
2024-04-30T18:44:01.137Z,20.75
2024-04-30T18:46:28.784Z,21.12
2024-04-30T18:48:57.256Z,21.35
2024-04-30T18:51:25.516Z,21.26
2024-04-30T18:53:53.181Z,21.14
2024-04-30T18:56:20.676Z,21.04
2024-04-30T18:58:48.387Z,20.89
2024-04-30T19:01:17.991Z,20.77
2024-04-30T19:03:48.506Z,20.63
2024-04-30T19:06:19.576Z,20.51
2024-04-30T19:08:47.321Z,20.40
2024-04-30T19:11:15.073Z,20.37
2024-04-30T19:13:44.576Z,20.61
2024-04-30T19:16:12.531Z,20.99
2024-04-30T19:18:40.368Z,21.34
2024-04-30T19:21:08.240Z,21.40
2024-04-30T19:23:35.955Z,21.27
2024-04-30T19:26:03.934Z,21.14
2024-04-30T19:28:31.459Z,21.01
2024-04-30T19:31:02.335Z,20.86
2024-04-30T19:33:30.142Z,20.72
2024-04-30T19:35:57.750Z,20.59
2024-04-30T19:38:26.446Z,20.49
2024-04-30T19:40:53.991Z,20.41
2024-04-30T19:43:21.524Z,20.60
2024-04-30T19:45:50.443Z,20.97
2024-04-30T19:48:19.684Z,21.35
2024-04-30T19:50:48.613Z,21.52
2024-04-30T19:53:16.118Z,21.41
2024-04-30T19:55:43.710Z,21.27
2024-04-30T19:58:11.286Z,21.15
2024-04-30T20:00:39.053Z,21.00
2024-04-30T20:03:07.623Z,20.86
2024-04-30T20:05:36.698Z,20.72
2024-04-30T20:08:04.557Z,20.59
2024-04-30T20:10:32.243Z,20.50
2024-04-30T20:12:59.859Z,20.70
2024-04-30T20:15:27.683Z,21.07
2024-04-30T20:17:55.633Z,21.42
2024-04-30T20:20:23.287Z,21.51
2024-04-30T20:22:50.973Z,21.39
2024-04-30T20:25:19.313Z,21.24
2024-04-30T20:27:46.933Z,21.12
2024-04-30T20:30:14.519Z,20.95
2024-04-30T20:32:42.819Z,20.80
2024-04-30T20:35:10.367Z,20.83
2024-04-30T20:37:37.940Z,21.13
2024-04-30T20:40:06.070Z,21.48
2024-04-30T20:42:33.683Z,21.58
2024-04-30T20:45:01.363Z,21.50
2024-04-30T20:47:29.060Z,21.42
2024-04-30T20:49:57.347Z,21.34
2024-04-30T20:52:25.014Z,21.20
2024-04-30T20:54:52.694Z,21.07
2024-04-30T20:57:20.429Z,20.95
2024-04-30T20:59:48.059Z,20.85
2024-04-30T21:02:15.852Z,20.74
2024-04-30T21:04:43.743Z,20.64
2024-04-30T21:07:11.348Z,20.56
2024-04-30T21:09:38.937Z,20.49
2024-04-30T21:12:06.780Z,20.41
2024-04-30T21:14:34.394Z,20.36
2024-04-30T21:17:04.760Z,20.30
2024-04-30T21:19:32.627Z,20.23
2024-04-30T21:22:00.412Z,20.15
2024-04-30T21:24:28.532Z,20.09
2024-04-30T21:26:56.319Z,20.03
2024-04-30T21:29:25.380Z,19.96
2024-04-30T21:31:53.114Z,19.91
2024-04-30T21:34:20.795Z,19.86
2024-04-30T21:36:48.945Z,19.80
2024-04-30T21:39:36.911Z,19.75
2024-04-30T21:42:04.892Z,19.70
2024-04-30T21:44:32.451Z,19.67
2024-04-30T21:46:59.956Z,19.65
2024-04-30T21:49:27.707Z,19.61
2024-04-30T21:51:55.446Z,19.59
2024-04-30T21:54:22.989Z,19.55
2024-04-30T21:56:50.835Z,19.51
2024-04-30T21:59:18.365Z,19.47
2024-04-30T22:01:47.299Z,19.43
2024-04-30T22:04:15.121Z,19.41
2024-04-30T22:06:42.857Z,19.37
2024-04-30T22:09:10.517Z,19.34
2024-04-30T22:11:39.148Z,19.31
2024-04-30T22:14:07.918Z,19.29
2024-04-30T22:16:35.570Z,19.26
2024-04-30T22:19:03.550Z,19.24
2024-04-30T22:21:31.166Z,19.22
2024-04-30T22:23:58.911Z,19.20
2024-04-30T22:26:26.646Z,19.14
2024-04-30T22:28:54.294Z,19.10
2024-04-30T22:31:21.990Z,19.07
2024-04-30T22:33:49.584Z,19.03
2024-04-30T22:36:17.247Z,19.00
2024-04-30T22:38:44.831Z,18.98
2024-04-30T22:41:12.438Z,18.97
2024-04-30T22:43:40.109Z,18.94
2024-04-30T22:46:13.729Z,18.92
2024-04-30T22:48:42.171Z,18.86
2024-04-30T22:51:09.894Z,18.81
2024-04-30T22:53:44.662Z,18.74
2024-04-30T22:56:18.285Z,18.64
2024-04-30T22:58:46.320Z,18.56
2024-04-30T23:01:14.060Z,18.73
2024-04-30T23:03:42.098Z,19.22
2024-04-30T23:06:09.936Z,19.80
2024-04-30T23:08:40.591Z,20.33
2024-04-30T23:11:09.185Z,20.61
2024-04-30T23:13:37.078Z,20.38
2024-04-30T23:16:05.219Z,20.09
2024-04-30T23:18:33.309Z,19.84
2024-04-30T23:21:01.226Z,19.65
2024-04-30T23:23:29.349Z,19.49
2024-04-30T23:25:56.964Z,19.32
2024-04-30T23:28:24.489Z,19.17
2024-04-30T23:30:52.057Z,19.39
2024-04-30T23:33:21.667Z,19.85
2024-04-30T23:35:49.257Z,20.32
2024-04-30T23:38:16.908Z,20.75
2024-04-30T23:40:44.512Z,20.77
2024-04-30T23:43:12.099Z,20.33
2024-04-30T23:45:39.643Z,19.93
2024-04-30T23:48:07.636Z,19.59
2024-04-30T23:50:35.388Z,19.53
2024-04-30T23:53:02.896Z,19.85
2024-04-30T23:55:30.532Z,20.25
2024-04-30T23:57:58.195Z,20.66
